Time;durP1;ratioP1;P1;durP2;ratioP2;P2;SDS_P1;SDS_P2;PMS_P1;PMS_P2;Temp;Humidity;BMP_temperature;BMP_pressure;BME280_temperature;BME280_humidity;BME280_pressure;Samples;Min_cycle;Max_cycle;Signal;HPM_P1;HPM_P2
2022/07/05 00:00:20;;;;;;;;;;;20.20;94.40;;;;;;4376408;32;43617;-79
2022/07/05 00:02:47;;;;;;;;;;;20.20;94.50;;;;;;4374683;32;43475;-79
2022/07/05 00:05:17;;;;;;;;;;;20.20;94.50;;;;;;4375056;32;42389;-79
2022/07/05 00:07:44;;;;;;;;;;;20.20;94.50;;;;;;4376009;32;45745;-79
2022/07/05 00:10:11;;;;;;;;;;;20.20;94.50;;;;;;4374661;32;44217;-79
2022/07/05 00:12:38;;;;;;;;;;;20.20;94.50;;;;;;4376228;32;43184;-80
2022/07/05 00:15:06;;;;;;;;;;;20.20;94.60;;;;;;4376224;32;43845;-79
2022/07/05 00:17:33;;;;;;;;;;;20.20;94.60;;;;;;4363159;32;19996;-79
2022/07/05 00:20:00;;;;;;;;;;;20.20;94.60;;;;;;4362453;32;42271;-79
2022/07/05 00:22:27;;;;;;;;;;;20.20;94.60;;;;;;4362310;32;42657;-79
2022/07/05 00:24:56;;;;;;;;;;;20.20;94.60;;;;;;4375741;32;43871;-79
2022/07/05 00:27:23;;;;;;;;;;;20.10;94.50;;;;;;4374988;32;44109;-79
2022/07/05 00:29:50;;;;;;;;;;;20.10;94.50;;;;;;4375544;32;43189;-79
2022/07/05 00:32:17;;;;;;;;;;;20.10;94.60;;;;;;4376383;32;44078;-79
2022/07/05 00:34:44;;;;;;;;;;;20.10;94.60;;;;;;4375948;32;43197;-79
2022/07/05 00:37:12;;;;;;;;;;;20.10;94.70;;;;;;4375799;32;43367;-79
2022/07/05 00:39:39;;;;;;;;;;;20.10;94.70;;;;;;4362376;32;42621;-79
2022/07/05 00:42:07;;;;;;;;;;;20.10;94.70;;;;;;4362077;32;42289;-79
2022/07/05 00:44:35;;;;;;;;;;;20.10;94.70;;;;;;4375367;32;43041;-79
2022/07/05 00:47:06;;;;;;;;;;;20.00;94.60;;;;;;4362037;32;43949;-79
2022/07/05 00:49:33;;;;;;;;;;;20.00;94.60;;;;;;4375639;32;42985;-79
2022/07/05 00:52:01;;;;;;;;;;;20.00;94.60;;;;;;4375450;32;45750;-79
2022/07/05 00:54:45;;;;;;;;;;;20.00;94.60;;;;;;4375691;32;43965;-79
2022/07/05 00:57:13;;;;;;;;;;;20.00;94.60;;;;;;4362149;32;45603;-79
2022/07/05 00:59:40;;;;;;;;;;;20.00;94.60;;;;;;4374300;32;43270;-79
2022/07/05 01:02:10;;;;;;;;;;;20.00;94.60;;;;;;4375112;32;43545;-79
2022/07/05 01:04:44;;;;;;;;;;;20.00;94.60;;;;;;4375774;32;44061;-80
2022/07/05 01:07:12;;;;;;;;;;;20.00;94.70;;;;;;4362216;32;44217;-79
2022/07/05 01:09:39;;;;;;;;;;;20.00;94.60;;;;;;4375445;32;43558;-79
2022/07/05 01:12:08;;;;;;;;;;;19.90;94.60;;;;;;4374206;32;42477;-80
2022/07/05 01:14:35;;;;;;;;;;;20.00;94.70;;;;;;4361494;32;43406;-80
2022/07/05 01:17:03;;;;;;;;;;;19.90;94.60;;;;;;4361428;32;42668;-80
2022/07/05 01:19:30;;;;;;;;;;;19.90;94.70;;;;;;4374855;32;44044;-79
2022/07/05 01:22:03;;;;;;;;;;;19.90;94.60;;;;;;4375304;32;44283;-80
2022/07/05 01:24:30;;;;;;;;;;;19.90;94.70;;;;;;4375553;32;44088;-80
2022/07/05 01:26:57;;;;;;;;;;;19.90;94.70;;;;;;4373917;32;43170;-80
2022/07/05 01:29:25;;;;;;;;;;;19.90;94.80;;;;;;4374339;32;43830;-80
2022/07/05 01:31:52;;;;;;;;;;;19.90;94.80;;;;;;4375215;32;45333;-80
2022/07/05 01:34:19;;;;;;;;;;;19.90;94.80;;;;;;4361337;32;43909;-79
2022/07/05 01:36:46;;;;;;;;;;;19.80;94.70;;;;;;4373975;32;42655;-80
2022/07/05 01:39:14;;;;;;;;;;;19.80;94.80;;;;;;4361729;32;43908;-79
2022/07/05 01:41:41;;;;;;;;;;;19.80;94.80;;;;;;4374688;32;45583;-79
2022/07/05 01:44:08;;;;;;;;;;;19.80;95.10;;;;;;4361446;32;43873;-79
2022/07/05 01:46:38;;;;;;;;;;;19.80;94.80;;;;;;4375021;32;44209;-79
2022/07/05 01:49:09;;;;;;;;;;;19.80;94.80;;;;;;4375027;32;42222;-79
2022/07/05 01:51:41;;;;;;;;;;;19.80;94.80;;;;;;4361654;32;43874;-79
2022/07/05 01:54:08;;;;;;;;;;;19.80;94.70;;;;;;4361458;32;43972;-79
2022/07/05 01:56:36;;;;;;;;;;;19.70;94.60;;;;;;4373777;32;45867;-79
2022/07/05 01:59:04;;;;;;;;;;;19.70;94.70;;;;;;4361423;32;43484;-79
2022/07/05 02:01:32;;;;;;;;;;;19.70;94.70;;;;;;4374536;32;43362;-80
2022/07/05 02:04:00;;;;;;;;;;;19.70;94.70;;;;;;4361846;32;43481;-79
2022/07/05 02:06:27;;;;;;;;;;;19.70;94.80;;;;;;4377927;32;43105;-79
2022/07/05 02:08:54;;;;;;;;;;;19.60;94.70;;;;;;4377570;32;43841;-79
2022/07/05 02:11:21;;;;;;;;;;;19.60;94.70;;;;;;4377747;32;43707;-79
2022/07/05 02:13:48;;;;;;;;;;;19.60;94.70;;;;;;4376608;32;43206;-79
2022/07/05 02:16:15;;;;;;;;;;;19.60;94.70;;;;;;4377580;32;43522;-80
2022/07/05 02:18:42;;;;;;;;;;;19.60;94.70;;;;;;4376429;32;44242;-80
2022/07/05 02:21:09;;;;;;;;;;;19.60;94.70;;;;;;4376903;32;44184;-79
2022/07/05 02:23:36;;;;;;;;;;;19.60;94.70;;;;;;4377443;32;44177;-80
2022/07/05 02:26:03;;;;;;;;;;;19.50;94.70;;;;;;4377782;32;44219;-80
2022/07/05 02:28:31;;;;;;;;;;;19.60;94.70;;;;;;4376434;32;44143;-80
2022/07/05 02:30:58;;;;;;;;;;;19.50;94.70;;;;;;4377706;32;43496;-78
2022/07/05 02:33:25;;;;;;;;;;;19.50;94.70;;;;;;4376110;32;44078;-79
2022/07/05 02:35:52;;;;;;;;;;;19.50;94.60;;;;;;4377093;32;43706;-80
2022/07/05 02:38:19;;;;;;;;;;;19.50;94.70;;;;;;4364010;32;42443;-80
2022/07/05 02:40:46;;;;;;;;;;;19.50;94.70;;;;;;4376581;32;42666;-80
2022/07/05 02:43:13;;;;;;;;;;;19.50;94.70;;;;;;4377401;32;44821;-79
2022/07/05 02:45:40;;;;;;;;;;;19.50;94.60;;;;;;4376726;32;43406;-81
2022/07/05 02:48:07;;;;;;;;;;;19.40;94.70;;;;;;4377093;32;43371;-80
2022/07/05 02:50:35;;;;;;;;;;;19.40;94.70;;;;;;4377254;32;43404;-80
2022/07/05 02:53:02;;;;;;;;;;;19.40;94.70;;;;;;4376318;32;43844;-80
2022/07/05 02:55:29;;;;;;;;;;;19.40;94.70;;;;;;4376959;32;44492;-80
2022/07/05 02:57:57;;;;;;;;;;;19.40;94.60;;;;;;4375925;32;42993;-79
2022/07/05 03:00:24;;;;;;;;;;;19.40;94.60;;;;;;4377470;32;42848;-80
2022/07/05 03:02:51;;;;;;;;;;;19.30;94.60;;;;;;4376752;32;44150;-80
2022/07/05 03:05:18;;;;;;;;;;;19.30;94.60;;;;;;4376318;32;43974;-79
2022/07/05 03:07:46;;;;;;;;;;;19.30;94.60;;;;;;4375857;32;43016;-79
2022/07/05 03:10:13;;;;;;;;;;;19.30;94.60;;;;;;4376196;32;44063;-79
2022/07/05 03:12:40;;;;;;;;;;;19.30;94.60;;;;;;4363743;32;43631;-80
2022/07/05 03:15:07;;;;;;;;;;;19.30;94.60;;;;;;4376457;32;43029;-80
2022/07/05 03:17:37;;;;;;;;;;;19.30;94.60;;;;;;4376814;32;43764;-79
2022/07/05 03:20:04;;;;;;;;;;;19.20;94.60;;;;;;4376673;32;45065;-80
2022/07/05 03:22:31;;;;;;;;;;;19.20;94.50;;;;;;4375970;32;44865;-79
2022/07/05 03:24:58;;;;;;;;;;;19.20;94.50;;;;;;4363105;32;44175;-80
2022/07/05 03:27:25;;;;;;;;;;;19.20;94.50;;;;;;4377031;32;43891;-80
2022/07/05 03:29:52;;;;;;;;;;;19.20;94.50;;;;;;4375877;32;44217;-79
2022/07/05 03:32:20;;;;;;;;;;;19.20;94.40;;;;;;4363370;32;46072;-79
2022/07/05 03:34:47;;;;;;;;;;;19.20;94.40;;;;;;4376437;32;42611;-79
2022/07/05 03:37:17;;;;;;;;;;;19.10;94.50;;;;;;4376547;32;42677;-79
2022/07/05 03:39:44;;;;;;;;;;;19.10;94.40;;;;;;4376315;32;42872;-79
2022/07/05 03:42:11;;;;;;;;;;;19.10;94.40;;;;;;4376732;32;43862;-79
2022/07/05 03:44:39;;;;;;;;;;;19.10;94.40;;;;;;4376213;32;43494;-79
2022/07/05 03:47:06;;;;;;;;;;;19.10;94.40;;;;;;4375324;32;43303;-80
2022/07/05 03:49:33;;;;;;;;;;;19.10;94.40;;;;;;4376810;32;44228;-79
2022/07/05 03:52:00;;;;;;;;;;;19.10;94.30;;;;;;4376079;32;45966;-79
2022/07/05 03:54:27;;;;;;;;;;;19.00;94.30;;;;;;4376201;32;44339;-79
2022/07/05 03:56:54;;;;;;;;;;;19.00;94.30;;;;;;4362522;32;43822;-79
2022/07/05 03:59:21;;;;;;;;;;;19.00;94.30;;;;;;4376145;32;43864;-79
2022/07/05 04:01:48;;;;;;;;;;;19.00;94.20;;;;;;4375843;32;43961;-80
2022/07/05 04:04:15;;;;;;;;;;;18.90;94.20;;;;;;4363121;32;44741;-80
2022/07/05 04:06:43;;;;;;;;;;;18.90;94.20;;;;;;4375816;32;45833;-80
2022/07/05 04:09:10;;;;;;;;;;;18.90;94.20;;;;;;4362447;32;43187;-79
2022/07/05 04:11:37;;;;;;;;;;;18.90;94.30;;;;;;4362331;32;44459;-80
2022/07/05 04:14:04;;;;;;;;;;;18.90;94.30;;;;;;4374970;32;43859;-80
2022/07/05 04:16:31;;;;;;;;;;;18.90;94.30;;;;;;4362397;32;42521;-79
2022/07/05 04:18:58;;;;;;;;;;;18.90;94.30;;;;;;4375775;32;43055;-80
2022/07/05 04:21:25;;;;;;;;;;;18.90;94.30;;;;;;4375180;32;43530;-80
2022/07/05 04:23:52;;;;;;;;;;;18.80;94.30;;;;;;4376118;32;42927;-79
2022/07/05 04:26:19;;;;;;;;;;;18.80;94.30;;;;;;4375536;32;43910;-80
2022/07/05 04:28:47;;;;;;;;;;;18.80;94.30;;;;;;4374739;32;44287;-80
2022/07/05 04:31:18;;;;;;;;;;;18.80;94.30;;;;;;4363041;32;42287;-80
2022/07/05 04:33:45;;;;;;;;;;;18.80;94.30;;;;;;4375956;32;43486;-79
2022/07/05 04:36:12;;;;;;;;;;;18.80;94.30;;;;;;4374454;32;42902;-79
2022/07/05 04:38:39;;;;;;;;;;;18.80;94.30;;;;;;4374890;32;42558;-80
2022/07/05 04:41:07;;;;;;;;;;;18.70;94.30;;;;;;4374624;32;43198;-80
2022/07/05 04:43:36;;;;;;;;;;;18.70;94.30;;;;;;4374853;32;43891;-79
2022/07/05 04:46:03;;;;;;;;;;;18.70;94.40;;;;;;4374246;32;43056;-79
2022/07/05 04:48:31;;;;;;;;;;;18.70;94.40;;;;;;4362503;32;44195;-80
2022/07/05 04:50:58;;;;;;;;;;;18.70;94.40;;;;;;4374670;32;45475;-79
2022/07/05 04:53:28;;;;;;;;;;;18.70;94.40;;;;;;4375214;32;43829;-80
2022/07/05 04:55:58;;;;;;;;;;;18.70;94.40;;;;;;4375175;32;43811;-80
2022/07/05 04:58:27;;;;;;;;;;;18.70;94.40;;;;;;4375218;32;44062;-80
2022/07/05 05:00:54;;;;;;;;;;;18.70;94.40;;;;;;4361636;32;44752;-80
2022/07/05 05:03:22;;;;;;;;;;;18.70;94.80;;;;;;4376713;32;20093;-79
2022/07/05 05:05:49;;;;;;;;;;;18.70;94.40;;;;;;4375415;32;43980;-79
2022/07/05 05:08:22;;;;;;;;;;;18.60;94.40;;;;;;4375035;32;43802;-80
2022/07/05 05:10:49;;;;;;;;;;;18.60;94.50;;;;;;4375800;32;39001;-80
2022/07/05 05:13:18;;;;;;;;;;;18.60;94.60;;;;;;4362131;32;43193;-79
2022/07/05 05:15:45;;;;;;;;;;;18.60;94.60;;;;;;4375458;32;45063;-79
2022/07/05 05:18:15;;;;;;;;;;;18.60;94.70;;;;;;4374173;32;44806;-79
2022/07/05 05:20:42;;;;;;;;;;;18.60;94.70;;;;;;4374884;32;42966;-80
2022/07/05 05:23:09;;;;;;;;;;;18.60;94.80;;;;;;4374314;32;43253;-80
2022/07/05 05:25:36;;;;;;;;;;;18.60;94.80;;;;;;4375150;32;44061;-80
2022/07/05 05:28:03;;;;;;;;;;;18.60;94.80;;;;;;4374319;32;42869;-79
2022/07/05 05:30:31;;;;;;;;;;;18.60;94.90;;;;;;4361500;32;43207;-80
2022/07/05 05:33:00;;;;;;;;;;;18.60;94.90;;;;;;4373997;32;42551;-79
2022/07/05 05:35:28;;;;;;;;;;;18.60;95.00;;;;;;4361144;32;42489;-80
2022/07/05 05:37:55;;;;;;;;;;;18.60;95.10;;;;;;4374398;32;44373;-79
2022/07/05 05:40:23;;;;;;;;;;;18.60;95.10;;;;;;4374561;32;42319;-79
2022/07/05 05:42:51;;;;;;;;;;;18.60;95.10;;;;;;4374926;32;45193;-79
2022/07/05 05:45:19;;;;;;;;;;;18.60;95.10;;;;;;4360938;32;44046;-79
2022/07/05 05:47:50;;;;;;;;;;;18.60;95.20;;;;;;4374766;32;43986;-80
2022/07/05 05:50:18;;;;;;;;;;;18.60;95.40;;;;;;4361032;32;42941;-80
2022/07/05 05:52:45;;;;;;;;;;;18.60;95.30;;;;;;4374587;32;42997;-79
2022/07/05 05:55:12;;;;;;;;;;;18.60;95.50;;;;;;4374606;32;42687;-80
2022/07/05 05:57:39;;;;;;;;;;;18.60;95.50;;;;;;4374578;32;42732;-78
2022/07/05 06:00:07;;;;;;;;;;;18.60;95.40;;;;;;4361358;32;43445;-80
2022/07/05 06:02:34;;;;;;;;;;;18.60;95.30;;;;;;4374121;32;43137;-79
2022/07/05 06:05:02;;;;;;;;;;;18.60;95.40;;;;;;4373198;32;44266;-79
2022/07/05 06:07:29;;;;;;;;;;;18.60;95.50;;;;;;4361260;32;43616;-80
2022/07/05 06:09:56;;;;;;;;;;;18.60;95.60;;;;;;4373379;32;44180;-79
2022/07/05 06:12:24;;;;;;;;;;;18.60;95.60;;;;;;4374442;32;42915;-79
2022/07/05 06:14:51;;;;;;;;;;;18.60;95.60;;;;;;4374523;32;43900;-79
2022/07/05 06:17:18;;;;;;;;;;;18.60;95.60;;;;;;4373799;32;43172;-79
2022/07/05 06:19:45;;;;;;;;;;;18.60;95.50;;;;;;4375493;32;20043;-80
2022/07/05 06:22:13;;;;;;;;;;;18.60;95.50;;;;;;4374900;32;43406;-79
2022/07/05 06:24:40;;;;;;;;;;;18.60;95.50;;;;;;4360792;32;43451;-80
2022/07/05 06:27:10;;;;;;;;;;;18.60;95.40;;;;;;4373698;32;44223;-79
2022/07/05 06:29:38;;;;;;;;;;;18.60;95.50;;;;;;4374634;32;46060;-81
2022/07/05 06:32:05;;;;;;;;;;;18.60;95.40;;;;;;4374417;32;20093;-80
2022/07/05 06:34:33;;;;;;;;;;;18.60;95.60;;;;;;4375253;32;27694;-81
2022/07/05 06:37:03;;;;;;;;;;;18.60;95.60;;;;;;4374825;32;44970;-81
2022/07/05 06:39:30;;;;;;;;;;;18.60;95.60;;;;;;4361463;32;43286;-81
2022/07/05 06:41:57;;;;;;;;;;;18.70;95.60;;;;;;4361152;32;43954;-81
2022/07/05 06:44:25;;;;;;;;;;;18.60;95.70;;;;;;4374181;32;43793;-80
2022/07/05 06:47:02;;;;;;;;;;;18.70;95.70;;;;;;4373362;32;43843;-81
2022/07/05 06:49:29;;;;;;;;;;;18.70;95.70;;;;;;4374484;32;43548;-80
2022/07/05 06:51:57;;;;;;;;;;;18.70;95.80;;;;;;4363417;32;43869;-81
2022/07/05 06:54:24;;;;;;;;;;;18.70;95.80;;;;;;4376126;32;43531;-80
2022/07/05 06:57:11;;;;;;;;;;;18.70;95.90;;;;;;4375800;32;42972;-81
2022/07/05 06:59:58;;;;;;;;;;;18.70;95.90;;;;;;4366013;32;42957;-81
2022/07/05 07:02:26;;;;;;;;;;;18.70;95.80;;;;;;4360721;32;43309;-79
2022/07/05 07:04:54;;;;;;;;;;;18.70;95.80;;;;;;4361799;32;44317;-81
2022/07/05 07:10:24;;;;;;;;;;;18.70;95.40;;;;;;4362167;32;42836;-81
2022/07/05 07:12:56;;;;;;;;;;;18.70;95.60;;;;;;4361994;32;42285;-81
2022/07/05 07:15:23;;;;;;;;;;;18.70;95.50;;;;;;4362172;32;42918;-81
2022/07/05 07:17:51;;;;;;;;;;;18.70;95.50;;;;;;4360571;32;44338;-80
2022/07/05 07:20:18;;;;;;;;;;;18.70;95.40;;;;;;4360636;32;44650;-81
2022/07/05 07:22:45;;;;;;;;;;;18.80;95.50;;;;;;4361642;32;43381;-80
2022/07/05 07:25:12;;;;;;;;;;;18.80;95.40;;;;;;4360498;32;44322;-80
2022/07/05 07:27:43;;;;;;;;;;;18.80;95.30;;;;;;4361810;32;43920;-80
2022/07/05 07:30:11;;;;;;;;;;;18.80;95.40;;;;;;4361621;32;44116;-80
2022/07/05 07:32:39;;;;;;;;;;;18.80;95.20;;;;;;4361236;32;45283;-80
2022/07/05 07:35:06;;;;;;;;;;;18.80;95.10;;;;;;4361758;32;44010;-79
2022/07/05 07:37:33;;;;;;;;;;;18.80;94.80;;;;;;4361298;32;43210;-80
2022/07/05 07:40:01;;;;;;;;;;;18.80;94.70;;;;;;4360091;32;42847;-80
2022/07/05 07:42:28;;;;;;;;;;;18.80;94.70;;;;;;4361045;32;43783;-80
2022/07/05 07:44:56;;;;;;;;;;;18.80;94.70;;;;;;4361336;32;45770;-79
2022/07/05 07:47:23;;;;;;;;;;;18.80;94.70;;;;;;4361058;32;44335;-80
2022/07/05 07:49:50;;;;;;;;;;;18.80;94.90;;;;;;4360165;32;43922;-80
2022/07/05 07:52:18;;;;;;;;;;;18.80;94.80;;;;;;4360995;32;43324;-79
2022/07/05 07:54:45;;;;;;;;;;;18.80;94.70;;;;;;4359900;32;43583;-80
2022/07/05 07:57:13;;;;;;;;;;;18.80;94.90;;;;;;4359732;32;45561;-80
2022/07/05 07:59:40;;;;;;;;;;;18.90;95.00;;;;;;4360924;32;44230;-80
2022/07/05 08:02:07;;;;;;;;;;;18.90;94.90;;;;;;4359084;32;45928;-79
2022/07/05 08:04:34;;;;;;;;;;;18.90;94.90;;;;;;4360844;32;43684;-79
2022/07/05 08:07:03;;;;;;;;;;;18.90;95.00;;;;;;4360280;32;44223;-79
2022/07/05 08:09:31;;;;;;;;;;;18.90;94.90;;;;;;4359723;32;42461;-79
2022/07/05 08:11:58;;;;;;;;;;;18.90;94.70;;;;;;4361103;32;45843;-79
2022/07/05 08:14:25;;;;;;;;;;;18.90;94.80;;;;;;4359810;32;42751;-80
2022/07/05 08:16:52;;;;;;;;;;;18.90;95.20;;;;;;4360047;32;43241;-80
2022/07/05 08:22:07;;;;;;;;;;;18.90;94.80;;;;;;4361504;32;44196;-79
2022/07/05 08:24:39;;;;;;;;;;;18.90;94.90;;;;;;4360167;32;44220;-79
2022/07/05 08:27:07;;;;;;;;;;;18.90;94.80;;;;;;4360135;32;35359;-78
2022/07/05 08:29:34;;;;;;;;;;;18.90;94.80;;;;;;4360720;32;43984;-79
2022/07/05 08:32:04;;;;;;;;;;;18.90;94.80;;;;;;4359331;32;45561;-79
2022/07/05 08:34:34;;;;;;;;;;;18.90;94.90;;;;;;4361000;32;44234;-79
2022/07/05 08:37:04;;;;;;;;;;;19.00;94.80;;;;;;4359416;32;43479;-80
2022/07/05 08:39:37;;;;;;;;;;;18.90;95.00;;;;;;4360932;32;43595;-79
2022/07/05 08:42:07;;;;;;;;;;;19.00;94.90;;;;;;4359845;32;46095;-78
2022/07/05 08:44:38;;;;;;;;;;;19.00;94.90;;;;;;4359852;32;46043;-79
2022/07/05 08:47:08;;;;;;;;;;;18.90;94.90;;;;;;4360782;32;43374;-79
2022/07/05 08:49:37;;;;;;;;;;;18.90;94.90;;;;;;4359739;32;46419;-78
2022/07/05 08:52:09;;;;;;;;;;;19.00;95.00;;;;;;4360722;32;20068;-79
2022/07/05 08:54:37;;;;;;;;;;;19.00;94.70;;;;;;4359745;32;43478;-79
2022/07/05 08:57:07;;;;;;;;;;;19.00;94.70;;;;;;4360303;32;43218;-78
2022/07/05 08:59:41;;;;;;;;;;;19.00;94.80;;;;;;4359679;32;44938;-78
2022/07/05 09:02:13;;;;;;;;;;;19.00;94.80;;;;;;4359209;32;45006;-78
2022/07/05 09:04:41;;;;;;;;;;;19.00;94.90;;;;;;4360791;32;46046;-77
2022/07/05 09:07:10;;;;;;;;;;;19.00;95.00;;;;;;4360171;32;43983;-78
2022/07/05 09:09:42;;;;;;;;;;;19.00;95.00;;;;;;4360128;32;43277;-79
2022/07/05 09:12:13;;;;;;;;;;;19.10;95.00;;;;;;4359737;32;43491;-80
2022/07/05 09:14:57;;;;;;;;;;;19.10;95.00;;;;;;4359791;32;43861;-79
2022/07/05 09:17:26;;;;;;;;;;;19.10;95.00;;;;;;4359014;32;44509;-77
2022/07/05 09:20:09;;;;;;;;;;;19.10;95.00;;;;;;4360034;32;46037;-78
2022/07/05 09:22:42;;;;;;;;;;;19.10;95.00;;;;;;4359709;32;20016;-76
2022/07/05 09:25:13;;;;;;;;;;;19.10;95.00;;;;;;4360293;32;43814;-79
2022/07/05 09:27:50;;;;;;;;;;;19.10;94.80;;;;;;4358943;32;42650;-78
2022/07/05 09:30:28;;;;;;;;;;;19.10;95.00;;;;;;4360165;32;41902;-79
2022/07/05 09:33:02;;;;;;;;;;;19.10;94.90;;;;;;4359185;32;42649;-80
2022/07/05 09:35:33;;;;;;;;;;;19.10;94.80;;;;;;4360255;32;42235;-78
2022/07/05 09:38:05;;;;;;;;;;;19.10;95.00;;;;;;4360080;32;42678;-78
2022/07/05 09:40:44;;;;;;;;;;;19.10;94.90;;;;;;4359389;32;43225;-77
2022/07/05 09:43:12;;;;;;;;;;;19.20;95.10;;;;;;4360186;32;45605;-78
2022/07/05 09:45:39;;;;;;;;;;;19.20;94.90;;;;;;4360053;32;44602;-81
2022/07/05 09:48:07;;;;;;;;;;;19.20;94.80;;;;;;4360229;32;43557;-82
2022/07/05 09:51:03;;;;;;;;;;;19.20;94.80;;;;;;4358858;32;43327;-77
2022/07/05 09:53:54;;;;;;;;;;;19.20;94.70;;;;;;4360212;32;45555;-80
2022/07/05 09:56:29;;;;;;;;;;;19.20;94.60;;;;;;4360072;32;43027;-79
2022/07/05 09:59:19;;;;;;;;;;;19.30;94.40;;;;;;4358486;32;43764;-78
2022/07/05 10:01:46;;;;;;;;;;;19.20;94.50;;;;;;4359734;32;43470;-80
2022/07/05 10:04:13;;;;;;;;;;;19.20;94.50;;;;;;4374762;32;44272;-80
2022/07/05 10:06:42;;;;;;;;;;;19.30;94.90;;;;;;4361546;32;44856;-79
2022/07/05 10:09:10;;;;;;;;;;;19.20;94.50;;;;;;4373288;32;43477;-80
2022/07/05 10:11:44;;;;;;;;;;;19.30;94.50;;;;;;4374472;32;42665;-80
2022/07/05 10:14:16;;;;;;;;;;;19.20;94.30;;;;;;4361521;32;45112;-80
2022/07/05 10:16:51;;;;;;;;;;;19.30;94.30;;;;;;4374615;32;44645;-79
2022/07/05 10:19:22;;;;;;;;;;;19.30;94.40;;;;;;4361554;32;44019;-77
2022/07/05 10:21:50;;;;;;;;;;;19.30;93.90;;;;;;4374782;32;44579;-79
2022/07/05 10:24:37;;;;;;;;;;;19.30;94.00;;;;;;4363605;32;43983;-78
2022/07/05 10:27:05;;;;;;;;;;;19.30;94.10;;;;;;4377632;32;43475;-76
2022/07/05 10:29:33;;;;;;;;;;;19.30;94.00;;;;;;4377671;32;43790;-80
2022/07/05 10:32:01;;;;;;;;;;;19.30;93.70;;;;;;4377205;32;42846;-79
2022/07/05 10:34:29;;;;;;;;;;;19.30;93.70;;;;;;4363843;32;44322;-79
2022/07/05 10:37:17;;;;;;;;;;;19.30;93.90;;;;;;4376832;32;46061;-79
2022/07/05 10:39:44;;;;;;;;;;;19.30;93.80;;;;;;4377001;32;42962;-79
2022/07/05 10:42:12;;;;;;;;;;;19.30;93.90;;;;;;4376506;32;42750;-79
2022/07/05 10:44:39;;;;;;;;;;;19.30;93.70;;;;;;4364105;32;42925;-78
2022/07/05 10:47:07;;;;;;;;;;;19.40;93.60;;;;;;4376025;32;44202;-81
2022/07/05 10:49:35;;;;;;;;;;;19.40;93.20;;;;;;4377090;32;44641;-79
2022/07/05 10:52:02;;;;;;;;;;;19.40;93.50;;;;;;4377051;32;43482;-80
2022/07/05 10:54:31;;;;;;;;;;;19.40;93.50;;;;;;4376567;32;22420;-79
2022/07/05 10:57:17;;;;;;;;;;;19.40;93.30;;;;;;4364031;32;43945;-80
2022/07/05 11:00:03;;;;;;;;;;;19.40;93.20;;;;;;4363801;32;45142;-79
2022/07/05 11:02:30;;;;;;;;;;;19.40;93.40;;;;;;4363296;32;42481;-77
2022/07/05 11:04:57;;;;;;;;;;;19.40;93.10;;;;;;4375812;32;43475;-77
2022/07/05 11:07:43;;;;;;;;;;;19.40;93.20;;;;;;4377242;32;42299;-76
2022/07/05 11:10:12;;;;;;;;;;;19.40;93.10;;;;;;4363471;32;42291;-79
2022/07/05 11:12:39;;;;;;;;;;;19.50;93.10;;;;;;4376742;32;43178;-78
2022/07/05 11:15:08;;;;;;;;;;;19.50;93.10;;;;;;4377177;32;43508;-78
2022/07/05 11:17:36;;;;;;;;;;;19.50;92.90;;;;;;4377252;32;42974;-78
2022/07/05 11:20:27;;;;;;;;;;;19.50;93.20;;;;;;4376610;32;42892;-76
2022/07/05 11:23:04;;;;;;;;;;;19.60;93.10;;;;;;4376597;32;43347;-77
2022/07/05 11:25:32;;;;;;;;;;;19.60;92.70;;;;;;4364071;32;19989;-79
2022/07/05 11:27:59;;;;;;;;;;;19.60;92.90;;;;;;4363293;32;45549;-77
2022/07/05 11:30:26;;;;;;;;;;;19.60;93.00;;;;;;4376871;32;43205;-78
2022/07/05 11:32:53;;;;;;;;;;;19.60;92.80;;;;;;4376416;32;43345;-80
2022/07/05 11:35:28;;;;;;;;;;;19.60;92.50;;;;;;4376800;32;44205;-78
2022/07/05 11:38:02;;;;;;;;;;;19.60;92.40;;;;;;4376740;32;45988;-79
2022/07/05 11:40:49;;;;;;;;;;;19.60;92.20;;;;;;4376184;32;44913;-79
2022/07/05 11:43:28;;;;;;;;;;;19.70;92.50;;;;;;4375778;32;44734;-77
2022/07/05 11:45:59;;;;;;;;;;;19.70;92.60;;;;;;4376784;32;45875;-77
2022/07/05 11:48:27;;;;;;;;;;;19.70;92.50;;;;;;4376753;32;45564;-79
2022/07/05 11:50:54;;;;;;;;;;;19.70;91.90;;;;;;4376817;32;43956;-79
2022/07/05 11:53:25;;;;;;;;;;;19.70;92.10;;;;;;4376577;32;43312;-77
2022/07/05 11:56:12;;;;;;;;;;;19.70;92.30;;;;;;4377182;32;20020;-79
2022/07/05 11:58:39;;;;;;;;;;;19.70;91.80;;;;;;4376028;32;42151;-80
2022/07/05 12:01:07;;;;;;;;;;;19.70;92.00;;;;;;4362818;32;44004;-80
2022/07/05 12:03:34;;;;;;;;;;;19.70;92.10;;;;;;4362830;32;43586;-77
2022/07/05 12:06:11;;;;;;;;;;;19.70;92.10;;;;;;4376592;32;43020;-78
2022/07/05 12:08:39;;;;;;;;;;;19.70;91.60;;;;;;4375993;32;43015;-77
2022/07/05 12:13:51;;;;;;;;;;;19.70;91.80;;;;;;4375937;32;43839;-78
2022/07/05 12:16:19;;;;;;;;;;;19.70;91.90;;;;;;4376285;32;43447;-76
2022/07/05 12:18:50;;;;;;;;;;;19.80;92.00;;;;;;4375125;32;43821;-76
2022/07/05 12:21:20;;;;;;;;;;;19.80;92.40;;;;;;4362432;32;42568;-76
2022/07/05 12:23:48;;;;;;;;;;;19.80;92.30;;;;;;4375740;32;42654;-77
2022/07/05 12:26:16;;;;;;;;;;;19.80;92.50;;;;;;4363132;32;20040;-75
2022/07/05 12:28:43;;;;;;;;;;;19.80;92.60;;;;;;4376216;32;43974;-76
2022/07/05 12:31:23;;;;;;;;;;;19.90;92.50;;;;;;4362629;32;43918;-76
2022/07/05 12:33:51;;;;;;;;;;;19.90;92.50;;;;;;4376279;32;43193;-76
2022/07/05 12:36:25;;;;;;;;;;;20.00;91.90;;;;;;4375874;32;44162;-77
2022/07/05 12:38:59;;;;;;;;;;;20.00;91.80;;;;;;4361461;32;43757;-76
2022/07/05 12:41:26;;;;;;;;;;;20.00;91.90;;;;;;4376096;32;43129;-77
2022/07/05 12:43:58;;;;;;;;;;;20.00;91.80;;;;;;4375780;32;46074;-77
2022/07/05 12:46:38;;;;;;;;;;;20.00;91.90;;;;;;4376166;32;44064;-77
2022/07/05 12:49:10;;;;;;;;;;;20.10;91.80;;;;;;4375001;32;44908;-79
2022/07/05 12:51:39;;;;;;;;;;;20.10;91.90;;;;;;4362058;32;43410;-77
2022/07/05 13:00:04;;;;;;;;;;;20.20;91.40;;;;;;4375758;32;44214;-77
2022/07/05 13:02:38;;;;;;;;;;;20.20;91.60;;;;;;4361594;32;43153;-77
2022/07/05 13:05:07;;;;;;;;;;;20.20;91.50;;;;;;4361717;32;42505;-77
2022/07/05 13:07:42;;;;;;;;;;;20.20;91.90;;;;;;4375658;32;43605;-77
2022/07/05 13:10:19;;;;;;;;;;;20.30;91.90;;;;;;4362011;32;44225;-77
2022/07/05 13:12:47;;;;;;;;;;;20.30;91.80;;;;;;4375541;32;44852;-76
2022/07/05 13:15:14;;;;;;;;;;;20.30;91.60;;;;;;4362009;32;44221;-77
2022/07/05 13:17:41;;;;;;;;;;;20.30;92.10;;;;;;4375416;32;44846;-77
2022/07/05 13:20:09;;;;;;;;;;;20.40;92.30;;;;;;4374867;32;42742;-77
2022/07/05 13:22:36;;;;;;;;;;;20.40;92.10;;;;;;4375415;32;42736;-77
2022/07/05 13:25:04;;;;;;;;;;;20.40;92.20;;;;;;4375339;32;43749;-77
2022/07/05 13:27:31;;;;;;;;;;;20.50;91.80;;;;;;4375981;32;20000;-77
2022/07/05 13:29:58;;;;;;;;;;;20.50;92.00;;;;;;4375312;32;43327;-76
2022/07/05 13:32:25;;;;;;;;;;;20.50;91.90;;;;;;4375025;32;43063;-76
2022/07/05 13:34:52;;;;;;;;;;;20.50;91.70;;;;;;4374801;32;43717;-80
2022/07/05 13:37:19;;;;;;;;;;;20.50;91.40;;;;;;4374726;32;43540;-76
2022/07/05 13:39:46;;;;;;;;;;;20.60;91.20;;;;;;4374561;32;42978;-77
2022/07/05 13:42:13;;;;;;;;;;;20.60;91.40;;;;;;4361677;32;44100;-77
2022/07/05 13:44:41;;;;;;;;;;;20.60;91.50;;;;;;4374778;32;44060;-77
2022/07/05 13:47:08;;;;;;;;;;;20.70;91.50;;;;;;4375099;32;42527;-78
2022/07/05 13:49:35;;;;;;;;;;;20.70;91.20;;;;;;4374886;32;44191;-76
2022/07/05 13:52:02;;;;;;;;;;;20.70;91.00;;;;;;4374979;32;42509;-77
2022/07/05 13:54:29;;;;;;;;;;;20.70;91.00;;;;;;4361185;32;43104;-76
2022/07/05 13:56:56;;;;;;;;;;;20.70;91.20;;;;;;4361142;32;44192;-77
2022/07/05 13:59:23;;;;;;;;;;;20.70;91.00;;;;;;4374157;32;43882;-76
2022/07/05 14:01:50;;;;;;;;;;;20.80;91.20;;;;;;4360789;32;44299;-78
2022/07/05 14:04:18;;;;;;;;;;;20.80;90.90;;;;;;4374810;32;42879;-77
2022/07/05 14:06:46;;;;;;;;;;;20.80;91.10;;;;;;4361295;32;44183;-77
2022/07/05 14:09:13;;;;;;;;;;;20.80;90.70;;;;;;4361216;32;42941;-76
2022/07/05 14:11:40;;;;;;;;;;;20.80;91.00;;;;;;4361405;32;42461;-76
2022/07/05 14:14:07;;;;;;;;;;;20.80;90.90;;;;;;4361195;32;43845;-76
2022/07/05 14:16:34;;;;;;;;;;;20.90;90.90;;;;;;4360975;32;44504;-76
2022/07/05 14:19:02;;;;;;;;;;;20.90;90.60;;;;;;4361100;32;43203;-76
2022/07/05 14:21:29;;;;;;;;;;;20.90;90.70;;;;;;4361318;32;43753;-76
2022/07/05 14:24:05;;;;;;;;;;;20.90;90.80;;;;;;4361999;32;43583;-76
2022/07/05 14:26:32;;;;;;;;;;;20.90;90.60;;;;;;4361000;32;43290;-76
2022/07/05 14:29:01;;;;;;;;;;;20.90;90.60;;;;;;4374491;32;43313;-76
2022/07/05 14:31:30;;;;;;;;;;;21.00;90.70;;;;;;4374685;32;43293;-77
2022/07/05 14:33:58;;;;;;;;;;;20.90;90.60;;;;;;4361174;32;43441;-76
2022/07/05 14:36:26;;;;;;;;;;;21.00;90.50;;;;;;4374700;32;43479;-76
2022/07/05 14:38:53;;;;;;;;;;;21.00;90.50;;;;;;4374226;32;43772;-76
2022/07/05 14:41:20;;;;;;;;;;;21.00;90.60;;;;;;4374236;32;43881;-76